< < Back
Terminal Aerodrome Forecast


Current Version              Previous Versions:   1  2  3  4  5  6  7  8  9  

Terminal Aerodrome Forecast

843
FTUS44 KOHX 071120
TAFBNA
TAF
KBNA 071120Z 0712/0812 19003KT P6SM BKN250
     FM080200 21006KT P6SM OVC100
     FM080700 24007KT P6SM -SHRA OVC050
     FM081000 26006KT 6SM -SHRA BR OVC025=

Latest METAR

608
SAUS70 KWBC 080200 RRF
MTRBNA
METAR KBNA 080153Z 21005KT 10SM OVC150 10/M07 A2994 RMK AO2 SLP141
T01001072 $


USA.gov is the U.S. government's official web portal to all federal, state and local government web resources and services.